createdAt,value
2018-09-24T00:02:05.793Z,99.90
2018-09-24T00:04:33.524Z,99.90
2018-09-24T00:07:01.226Z,99.90
2018-09-24T00:09:28.941Z,99.90
2018-09-24T00:11:56.625Z,99.90
2018-09-24T00:14:24.297Z,99.90
2018-09-24T00:16:51.970Z,99.90
2018-09-24T00:19:19.662Z,99.90
2018-09-24T00:21:47.326Z,99.90
2018-09-24T00:24:15.001Z,99.90
2018-09-24T00:26:42.681Z,99.90
2018-09-24T00:29:10.371Z,99.90
2018-09-24T00:31:38.043Z,99.90
2018-09-24T00:34:05.895Z,99.90
2018-09-24T00:36:33.564Z,99.90
2018-09-24T00:39:01.256Z,99.90
2018-09-24T00:41:28.931Z,99.90
2018-09-24T00:43:56.634Z,99.90
2018-09-24T00:46:24.301Z,99.90
2018-09-24T00:48:52.042Z,99.90
2018-09-24T00:51:19.717Z,99.90
2018-09-24T00:53:47.416Z,99.90
2018-09-24T00:56:15.076Z,99.90
2018-09-24T00:58:42.766Z,99.90
2018-09-24T01:01:10.440Z,99.90
2018-09-24T01:03:38.816Z,99.90
2018-09-24T01:06:06.525Z,99.90
2018-09-24T01:08:34.209Z,99.90
2018-09-24T01:11:01.871Z,99.90
2018-09-24T01:13:29.557Z,99.90
2018-09-24T01:15:57.221Z,99.90
2018-09-24T01:18:24.917Z,99.90
2018-09-24T01:20:52.568Z,99.90
2018-09-24T01:23:20.228Z,99.90
2018-09-24T01:25:47.906Z,99.90
2018-09-24T01:28:15.554Z,99.90
2018-09-24T01:30:43.813Z,99.90
2018-09-24T01:33:11.480Z,99.90
2018-09-24T01:35:39.153Z,99.90
2018-09-24T01:38:06.801Z,99.90
2018-09-24T01:40:34.490Z,99.90
2018-09-24T01:43:02.152Z,99.90
2018-09-24T01:45:29.854Z,99.90
2018-09-24T01:47:57.525Z,99.90
2018-09-24T01:50:25.185Z,99.90
2018-09-24T01:52:52.855Z,99.90
2018-09-24T01:55:20.577Z,99.90
2018-09-24T01:57:48.248Z,99.90
2018-09-24T02:00:15.927Z,99.90
2018-09-24T02:02:43.594Z,99.90
2018-09-24T02:05:15.007Z,99.90
2018-09-24T02:07:42.688Z,99.90
2018-09-24T02:10:10.373Z,99.90
2018-09-24T02:12:38.033Z,99.90
2018-09-24T02:15:05.749Z,99.90
2018-09-24T02:17:33.415Z,99.90
2018-09-24T02:20:01.110Z,99.90
2018-09-24T02:22:29.894Z,99.90
2018-09-24T02:24:58.385Z,99.90
2018-09-24T02:27:26.236Z,99.90
2018-09-24T02:29:53.927Z,99.90
2018-09-24T02:32:21.761Z,99.90
2018-09-24T02:34:50.918Z,99.90
2018-09-24T02:37:18.892Z,99.90
2018-09-24T02:39:46.856Z,99.90
2018-09-24T02:42:14.547Z,99.90
2018-09-24T02:44:42.216Z,99.90
2018-09-24T02:47:09.914Z,99.90
2018-09-24T02:49:37.582Z,99.90
2018-09-24T02:52:05.529Z,99.90
2018-09-24T02:54:34.816Z,99.90
2018-09-24T02:57:02.506Z,99.90
2018-09-24T02:59:30.179Z,99.90
2018-09-24T03:01:57.880Z,99.90
2018-09-24T03:04:25.769Z,99.90
2018-09-24T03:06:53.441Z,99.90
2018-09-24T03:09:21.134Z,99.90
2018-09-24T03:11:48.842Z,99.90
2018-09-24T03:14:22.058Z,99.90
2018-09-24T03:16:49.741Z,99.90
2018-09-24T03:19:17.414Z,99.90
2018-09-24T03:21:45.094Z,99.90
2018-09-24T03:24:12.776Z,99.90
2018-09-24T03:26:40.502Z,99.90
2018-09-24T03:29:08.206Z,99.90
2018-09-24T03:31:36.781Z,99.90
2018-09-24T03:34:04.597Z,99.90
2018-09-24T03:36:32.279Z,99.90
2018-09-24T03:38:59.994Z,99.90
2018-09-24T03:41:27.668Z,99.90
2018-09-24T03:43:55.328Z,99.90
2018-09-24T03:46:23.002Z,99.90
2018-09-24T03:48:50.672Z,99.90
2018-09-24T03:51:18.346Z,99.90
2018-09-24T03:53:46.027Z,99.90
2018-09-24T03:56:13.722Z,99.90
2018-09-24T03:58:41.426Z,99.90
2018-09-24T04:01:09.095Z,99.90
2018-09-24T04:03:36.755Z,99.90
2018-09-24T04:06:09.976Z,99.90
2018-09-24T04:08:43.125Z,99.90
2018-09-24T04:11:16.344Z,99.90
2018-09-24T04:13:49.521Z,99.90
2018-09-24T04:16:22.680Z,99.90
2018-09-24T04:18:55.764Z,99.90
2018-09-24T04:21:28.772Z,99.90
2018-09-24T04:24:01.980Z,99.90
2018-09-24T04:26:35.160Z,99.90
2018-09-24T04:29:08.265Z,99.90
2018-09-24T04:31:41.418Z,99.90
2018-09-24T04:34:14.465Z,99.90
2018-09-24T04:36:47.608Z,99.90
2018-09-24T04:39:20.843Z,99.90
2018-09-24T04:41:53.867Z,99.90
2018-09-24T04:44:27.014Z,99.90
2018-09-24T04:47:00.145Z,99.90
2018-09-24T04:49:33.358Z,99.90
2018-09-24T04:52:06.414Z,99.90
2018-09-24T04:54:39.474Z,99.90
2018-09-24T04:57:12.712Z,99.90
2018-09-24T04:59:45.885Z,99.90
2018-09-24T05:02:19.059Z,99.90
2018-09-24T05:04:52.347Z,99.90
2018-09-24T05:07:25.489Z,99.90
2018-09-24T05:09:58.586Z,99.90
2018-09-24T05:12:31.782Z,99.90
2018-09-24T05:15:04.945Z,99.90
2018-09-24T05:17:38.098Z,99.90
2018-09-24T05:20:12.078Z,99.90
2018-09-24T05:22:45.178Z,99.90
2018-09-24T05:25:18.482Z,99.90
2018-09-24T05:27:51.722Z,99.90
2018-09-24T05:30:24.922Z,99.90
2018-09-24T05:32:58.083Z,99.90
2018-09-24T05:35:31.109Z,99.90
2018-09-24T05:38:04.185Z,99.90
2018-09-24T05:40:37.430Z,99.90
2018-09-24T05:43:10.574Z,99.90
2018-09-24T05:45:43.779Z,99.90
2018-09-24T05:48:16.962Z,99.90
2018-09-24T05:50:50.165Z,99.90
2018-09-24T05:53:23.817Z,99.90
2018-09-24T05:55:56.959Z,99.90
2018-09-24T05:58:30.131Z,99.90
2018-09-24T06:01:03.342Z,99.90
2018-09-24T06:03:36.449Z,99.90
2018-09-24T06:06:09.529Z,99.90
2018-09-24T06:08:42.682Z,99.90
2018-09-24T06:11:15.910Z,99.90
2018-09-24T06:13:49.062Z,99.90
2018-09-24T06:16:22.233Z,99.90
2018-09-24T06:18:55.517Z,99.90
2018-09-24T06:21:28.674Z,99.90
2018-09-24T06:24:01.796Z,99.90
2018-09-24T06:26:35.058Z,99.90
2018-09-24T06:29:08.112Z,99.90
2018-09-24T06:31:41.344Z,99.90
2018-09-24T06:34:14.517Z,99.90
2018-09-24T06:36:47.700Z,99.90
2018-09-24T06:39:20.763Z,99.90
2018-09-24T06:41:53.996Z,99.90
2018-09-24T06:44:27.086Z,99.90
2018-09-24T06:47:00.286Z,99.90
2018-09-24T06:49:33.569Z,99.90
2018-09-24T06:52:06.733Z,99.90
2018-09-24T06:54:40.326Z,99.90
2018-09-24T06:57:13.517Z,99.90
2018-09-24T06:59:46.696Z,99.90
2018-09-24T07:02:19.918Z,99.90
2018-09-24T07:04:53.069Z,99.90
2018-09-24T07:07:26.217Z,99.90
2018-09-24T07:09:59.300Z,99.90
2018-09-24T07:12:32.344Z,99.90
2018-09-24T07:15:05.541Z,99.90
2018-09-24T07:17:38.733Z,99.90
2018-09-24T07:20:11.826Z,99.90
2018-09-24T07:22:45.034Z,99.90
2018-09-24T07:25:18.189Z,99.90
2018-09-24T07:27:51.498Z,99.90
2018-09-24T07:30:24.553Z,99.90
2018-09-24T07:32:57.795Z,99.90
2018-09-24T07:35:30.941Z,99.90
2018-09-24T07:38:04.153Z,99.90
2018-09-24T07:40:37.240Z,99.90
2018-09-24T07:43:10.414Z,99.90
2018-09-24T07:45:43.527Z,99.90
2018-09-24T07:48:16.786Z,99.90
2018-09-24T07:50:49.862Z,99.90
2018-09-24T07:53:23.061Z,99.90
2018-09-24T07:55:56.213Z,99.90
2018-09-24T07:58:30.261Z,99.90
2018-09-24T08:01:03.397Z,99.90
2018-09-24T08:03:36.489Z,99.90
2018-09-24T08:06:09.654Z,99.90
2018-09-24T08:08:42.862Z,99.90
2018-09-24T08:11:15.948Z,99.90
2018-09-24T08:13:49.175Z,99.90
2018-09-24T08:16:22.342Z,99.90
2018-09-24T08:18:55.629Z,99.90
2018-09-24T08:21:28.770Z,99.90
2018-09-24T08:24:01.973Z,99.90
2018-09-24T08:26:35.186Z,99.90
2018-09-24T08:29:08.282Z,99.90
2018-09-24T08:31:41.437Z,99.90
2018-09-24T08:34:14.646Z,99.90
2018-09-24T08:36:47.806Z,99.90
2018-09-24T08:39:20.853Z,99.90
2018-09-24T08:41:53.905Z,99.90
2018-09-24T08:44:27.097Z,99.90
2018-09-24T08:47:00.246Z,99.90
2018-09-24T08:49:33.481Z,99.90
2018-09-24T08:52:06.530Z,99.90
2018-09-24T08:54:39.722Z,98.90
2018-09-24T08:57:12.793Z,99.90
2018-09-24T08:59:45.909Z,99.90
2018-09-24T09:02:19.108Z,99.30
2018-09-24T09:04:52.321Z,98.70
2018-09-24T09:07:25.493Z,99.70
2018-09-24T09:09:58.683Z,98.60
2018-09-24T09:12:31.794Z,98.50
2018-09-24T09:15:04.966Z,98.70
2018-09-24T09:17:38.157Z,99.60
2018-09-24T09:20:11.344Z,99.90
2018-09-24T09:22:44.400Z,99.90
2018-09-24T09:25:17.417Z,99.90
2018-09-24T09:27:50.580Z,99.90
2018-09-24T09:30:23.725Z,99.90
2018-09-24T09:32:56.782Z,99.90
2018-09-24T09:35:29.961Z,99.90
2018-09-24T09:38:03.142Z,99.90
2018-09-24T09:40:36.380Z,99.90
2018-09-24T09:43:09.545Z,99.90
2018-09-24T09:45:42.558Z,99.90
2018-09-24T09:48:15.726Z,99.90
2018-09-24T09:50:48.930Z,99.90
2018-09-24T09:53:22.071Z,99.90
2018-09-24T09:55:55.286Z,99.90
2018-09-24T09:58:28.462Z,99.90
2018-09-24T10:01:01.614Z,99.90
2018-09-24T10:03:34.678Z,99.90
2018-09-24T10:06:08.357Z,99.90
2018-09-24T10:08:41.535Z,99.90
2018-09-24T10:11:14.686Z,99.90
2018-09-24T10:13:47.904Z,99.90
2018-09-24T10:16:21.125Z,99.90
2018-09-24T10:18:54.272Z,99.90
2018-09-24T10:21:27.307Z,99.90
2018-09-24T10:24:00.376Z,99.90
2018-09-24T10:26:33.477Z,99.90
2018-09-24T10:29:06.616Z,99.90
2018-09-24T10:31:39.764Z,99.90
2018-09-24T10:34:13.032Z,99.60
2018-09-24T10:36:46.247Z,99.50
2018-09-24T10:39:19.411Z,97.40
2018-09-24T10:41:52.613Z,98.50
2018-09-24T10:44:25.739Z,97.00
2018-09-24T10:46:58.878Z,96.70
2018-09-24T10:49:32.052Z,95.60
2018-09-24T10:52:05.265Z,95.10
2018-09-24T10:54:38.461Z,96.60
2018-09-24T10:57:11.646Z,96.40
2018-09-24T10:59:44.816Z,95.80
2018-09-24T11:02:18.045Z,96.70
2018-09-24T11:04:51.229Z,94.10
2018-09-24T11:07:24.309Z,94.90
2018-09-24T11:09:57.478Z,93.40
2018-09-24T11:12:30.671Z,91.60
2018-09-24T11:15:03.862Z,93.40
2018-09-24T11:17:37.312Z,94.50
2018-09-24T11:20:10.448Z,94.10
2018-09-24T11:22:43.986Z,91.90
2018-09-24T11:25:17.064Z,90.80
2018-09-24T11:27:50.178Z,88.60
2018-09-24T11:30:23.321Z,90.70
2018-09-24T11:32:56.482Z,91.70
2018-09-24T11:35:29.561Z,92.90
2018-09-24T11:38:02.669Z,96.50
2018-09-24T11:40:35.835Z,98.00
2018-09-24T11:43:09.060Z,99.70
2018-09-24T11:45:42.085Z,99.90
2018-09-24T11:48:15.323Z,99.90
2018-09-24T11:50:48.515Z,99.90
2018-09-24T11:53:21.731Z,99.90
2018-09-24T11:55:54.881Z,99.90
2018-09-24T11:58:28.085Z,99.90
2018-09-24T12:01:01.204Z,99.90
2018-09-24T12:03:34.624Z,99.90
2018-09-24T12:06:07.711Z,99.90
2018-09-24T12:08:41.002Z,99.90
2018-09-24T12:11:14.798Z,99.90
2018-09-24T12:13:47.959Z,99.90
2018-09-24T12:16:21.180Z,99.90
2018-09-24T12:18:54.545Z,99.90
2018-09-24T12:21:27.736Z,99.90
2018-09-24T12:24:01.510Z,99.90
2018-09-24T12:26:35.778Z,99.90
2018-09-24T12:29:09.502Z,99.90
2018-09-24T12:31:43.911Z,99.90
2018-09-24T12:34:17.189Z,99.90
2018-09-24T12:36:50.876Z,99.90
2018-09-24T12:39:24.841Z,99.90
2018-09-24T12:41:57.913Z,99.90
2018-09-24T12:44:31.203Z,99.90
2018-09-24T12:47:04.387Z,99.90
2018-09-24T12:49:37.565Z,99.90
2018-09-24T12:52:11.136Z,99.90
2018-09-24T12:54:44.400Z,99.90
2018-09-24T12:57:17.546Z,99.90
2018-09-24T12:59:50.697Z,99.90
2018-09-24T13:02:23.858Z,99.90
2018-09-24T13:04:57.046Z,98.10
2018-09-24T13:07:30.765Z,98.60
2018-09-24T13:10:03.933Z,99.50
2018-09-24T13:12:37.145Z,99.90
2018-09-24T13:15:10.416Z,99.90
2018-09-24T13:17:43.617Z,99.90
2018-09-24T13:20:16.681Z,99.90
2018-09-24T13:22:49.902Z,99.90
2018-09-24T13:25:23.033Z,99.90
2018-09-24T13:27:56.177Z,99.60
2018-09-24T13:30:29.250Z,97.90
2018-09-24T13:33:02.338Z,98.40
2018-09-24T13:35:35.502Z,99.50
2018-09-24T13:38:08.687Z,99.90
2018-09-24T13:40:41.840Z,97.80
2018-09-24T13:43:15.153Z,96.90
2018-09-24T13:45:48.303Z,94.90
2018-09-24T13:48:21.358Z,93.80
2018-09-24T13:50:54.547Z,97.50
2018-09-24T13:53:27.746Z,93.30
2018-09-24T13:56:00.861Z,93.60
2018-09-24T13:58:33.938Z,90.40
2018-09-24T14:01:07.161Z,89.50
2018-09-24T14:03:40.352Z,89.20
2018-09-24T14:06:13.996Z,85.50
2018-09-24T14:08:47.915Z,81.20
2018-09-24T14:11:21.669Z,79.90
2018-09-24T14:13:55.399Z,81.80
2018-09-24T14:16:29.209Z,75.70
2018-09-24T14:19:02.962Z,84.50
2018-09-24T14:21:37.008Z,88.50
2018-09-24T14:24:11.015Z,91.10
2018-09-24T14:26:44.764Z,92.70
2018-09-24T14:29:18.487Z,95.60
2018-09-24T14:31:52.886Z,99.90
2018-09-24T14:34:26.734Z,99.90
2018-09-24T14:37:00.441Z,99.90
2018-09-24T14:39:35.120Z,99.90
2018-09-24T14:42:08.861Z,99.90
2018-09-24T14:44:42.718Z,99.90
2018-09-24T14:47:16.673Z,99.90
2018-09-24T14:49:50.346Z,99.90
2018-09-24T14:52:24.241Z,99.90
2018-09-24T14:54:58.015Z,99.90
2018-09-24T14:57:32.006Z,99.90
2018-09-24T15:00:05.754Z,99.90
2018-09-24T15:02:39.565Z,99.90
2018-09-24T15:05:13.517Z,99.90
2018-09-24T15:07:47.538Z,99.90
2018-09-24T15:10:21.259Z,99.90
2018-09-24T15:12:55.022Z,99.90
2018-09-24T15:15:28.793Z,99.90
2018-09-24T15:18:02.518Z,99.90
2018-09-24T15:20:36.274Z,99.90
2018-09-24T15:23:10.010Z,99.90
2018-09-24T15:25:43.683Z,99.90
2018-09-24T15:28:17.518Z,99.90
2018-09-24T15:30:51.312Z,99.90
2018-09-24T15:33:25.098Z,99.90
2018-09-24T15:35:58.916Z,99.90
2018-09-24T15:38:32.789Z,99.90
2018-09-24T15:41:07.504Z,99.90
2018-09-24T15:43:41.308Z,99.90
2018-09-24T15:46:15.178Z,99.90
2018-09-24T15:48:48.999Z,99.90
2018-09-24T15:51:22.763Z,99.90
2018-09-24T15:53:56.474Z,99.90
2018-09-24T15:56:30.257Z,99.90
2018-09-24T15:59:04.082Z,99.90
2018-09-24T16:01:38.044Z,99.90
2018-09-24T16:04:11.851Z,99.90
2018-09-24T16:06:45.801Z,99.90
2018-09-24T16:09:19.510Z,99.90
2018-09-24T16:11:53.209Z,99.90
2018-09-24T16:14:27.143Z,99.90
2018-09-24T16:17:00.923Z,99.90
2018-09-24T16:19:34.837Z,99.90
2018-09-24T16:22:08.609Z,99.90
2018-09-24T16:24:42.559Z,99.90
2018-09-24T16:27:16.341Z,99.90
2018-09-24T16:29:50.010Z,99.90
2018-09-24T16:32:23.680Z,99.90
2018-09-24T16:34:58.982Z,99.90
2018-09-24T16:37:32.963Z,99.90
2018-09-24T16:40:06.690Z,99.90
2018-09-24T16:42:40.516Z,99.90
2018-09-24T16:45:14.296Z,99.90
2018-09-24T16:47:48.194Z,99.90
2018-09-24T16:50:22.362Z,99.90
2018-09-24T16:52:56.203Z,99.90
2018-09-24T16:55:30.170Z,99.90
2018-09-24T16:58:03.788Z,99.90
2018-09-24T17:00:37.682Z,99.90
2018-09-24T17:03:12.249Z,99.90
2018-09-24T17:05:46.014Z,99.90
2018-09-24T17:08:19.718Z,99.90
2018-09-24T17:10:53.383Z,99.90
2018-09-24T17:13:27.155Z,99.90
2018-09-24T17:16:00.891Z,99.90
2018-09-24T17:18:34.646Z,99.90
2018-09-24T17:21:08.557Z,99.90
2018-09-24T17:23:42.285Z,99.90
2018-09-24T17:26:16.101Z,99.90
2018-09-24T17:28:49.853Z,99.90
2018-09-24T17:31:23.714Z,99.90
2018-09-24T17:33:57.485Z,98.90
2018-09-24T17:36:31.283Z,98.50
2018-09-24T17:39:05.492Z,98.60
2018-09-24T17:41:39.239Z,97.80
2018-09-24T17:44:13.162Z,98.30
2018-09-24T17:46:47.005Z,98.00
2018-09-24T17:49:20.833Z,96.80
2018-09-24T17:51:54.593Z,97.30
2018-09-24T17:54:28.417Z,96.20
2018-09-24T17:57:02.155Z,96.60
2018-09-24T17:59:35.945Z,97.20
2018-09-24T18:02:09.817Z,96.10
2018-09-24T18:04:43.576Z,96.10
2018-09-24T18:07:17.340Z,97.00
2018-09-24T18:09:51.110Z,97.70
2018-09-24T18:12:24.746Z,98.90
2018-09-24T18:14:58.566Z,98.70
2018-09-24T18:17:32.249Z,98.70
2018-09-24T18:20:06.030Z,98.30
2018-09-24T18:22:40.150Z,97.30
2018-09-24T18:25:13.997Z,97.10
2018-09-24T18:27:47.661Z,97.50
2018-09-24T18:30:21.483Z,97.90
2018-09-24T18:32:55.358Z,98.30
2018-09-24T18:35:28.993Z,98.20
2018-09-24T18:38:02.676Z,98.90
2018-09-24T18:40:36.474Z,99.90
2018-09-24T18:43:10.955Z,99.10
2018-09-24T18:45:44.741Z,99.30
2018-09-24T18:48:18.578Z,99.90
2018-09-24T18:50:52.263Z,99.90
2018-09-24T18:53:26.405Z,99.90
2018-09-24T18:56:00.392Z,99.90
2018-09-24T18:58:36.207Z,99.90
2018-09-24T19:01:10.281Z,99.60
2018-09-24T19:03:45.277Z,99.00
2018-09-24T19:06:21.019Z,99.00
2018-09-24T19:08:55.113Z,99.20
2018-09-24T19:11:29.286Z,98.10
2018-09-24T19:14:03.094Z,98.40
2018-09-24T19:16:36.814Z,99.30
2018-09-24T19:19:10.551Z,99.80
2018-09-24T19:21:44.496Z,99.90
2018-09-24T19:24:18.468Z,99.90
2018-09-24T19:26:52.412Z,99.90
2018-09-24T19:29:26.206Z,99.90
2018-09-24T19:31:59.838Z,99.90
2018-09-24T19:34:34.509Z,99.90
2018-09-24T19:37:08.482Z,99.90
2018-09-24T19:39:42.325Z,99.90
2018-09-24T19:42:16.022Z,99.90
2018-09-24T19:44:49.954Z,99.90
2018-09-24T19:47:23.750Z,99.90
2018-09-24T19:49:57.670Z,99.90
2018-09-24T19:52:31.654Z,99.90
2018-09-24T19:55:05.551Z,99.90
2018-09-24T19:57:39.288Z,99.90
2018-09-24T20:00:13.035Z,99.90
2018-09-24T20:02:46.851Z,99.90
2018-09-24T20:05:20.696Z,99.90
2018-09-24T20:07:54.463Z,99.90
2018-09-24T20:10:28.259Z,99.90
2018-09-24T20:13:02.779Z,99.90
2018-09-24T20:15:36.639Z,99.90
2018-09-24T20:18:10.522Z,99.90
2018-09-24T20:20:44.346Z,99.90
2018-09-24T20:23:18.078Z,99.90
2018-09-24T20:25:52.300Z,99.90
2018-09-24T20:28:26.145Z,99.90
2018-09-24T20:31:00.011Z,99.90
2018-09-24T20:33:33.702Z,99.90
2018-09-24T20:36:07.547Z,99.90
2018-09-24T20:38:41.288Z,99.90
2018-09-24T20:41:15.199Z,99.90
2018-09-24T20:43:49.162Z,99.90
2018-09-24T20:46:23.053Z,99.90
2018-09-24T20:48:56.728Z,99.90
2018-09-24T20:51:30.429Z,99.90
2018-09-24T20:54:04.205Z,99.90
2018-09-24T20:56:38.046Z,99.90
2018-09-24T20:59:11.873Z,99.90
2018-09-24T21:01:45.809Z,99.90
2018-09-24T21:04:19.598Z,99.90
2018-09-24T21:06:53.513Z,99.90
2018-09-24T21:09:27.228Z,99.90
2018-09-24T21:12:00.994Z,99.90
2018-09-24T21:14:34.789Z,99.90
2018-09-24T21:17:08.587Z,99.90
2018-09-24T21:19:42.382Z,99.90
2018-09-24T21:22:16.254Z,99.90
2018-09-24T21:24:49.988Z,99.90
2018-09-24T21:27:23.821Z,99.90
2018-09-24T21:29:57.591Z,99.90
2018-09-24T21:32:31.477Z,99.90
2018-09-24T21:35:05.165Z,99.90
2018-09-24T21:37:38.884Z,99.90
2018-09-24T21:40:12.938Z,99.90
2018-09-24T21:42:46.821Z,99.90
2018-09-24T21:45:21.346Z,99.90
2018-09-24T21:47:55.248Z,99.90
2018-09-24T21:50:29.009Z,99.90
2018-09-24T21:53:09.842Z,99.90
2018-09-24T21:55:43.472Z,99.90
2018-09-24T21:58:17.247Z,99.90
2018-09-24T22:00:51.004Z,99.90
2018-09-24T22:03:24.881Z,99.90
2018-09-24T22:05:58.539Z,99.90
2018-09-24T22:08:32.522Z,99.90
2018-09-24T22:11:06.353Z,99.90
2018-09-24T22:13:39.990Z,99.90
2018-09-24T22:16:13.753Z,99.90
2018-09-24T22:18:47.562Z,99.90
2018-09-24T22:21:21.302Z,99.90
2018-09-24T22:23:55.173Z,99.90
2018-09-24T22:26:29.076Z,99.90
2018-09-24T22:29:02.858Z,99.90
2018-09-24T22:31:36.478Z,99.90
2018-09-24T22:34:10.357Z,99.90
2018-09-24T22:36:44.129Z,99.90
2018-09-24T22:39:17.786Z,99.90
2018-09-24T22:41:51.562Z,99.90
2018-09-24T22:44:25.473Z,99.90
2018-09-24T22:46:59.293Z,99.90
2018-09-24T22:49:33.241Z,99.90
2018-09-24T22:52:06.904Z,99.90
2018-09-24T22:54:40.611Z,99.90
2018-09-24T22:57:14.525Z,99.90
2018-09-24T22:59:48.347Z,99.90
2018-09-24T23:02:22.109Z,99.90
2018-09-24T23:04:55.869Z,99.90
2018-09-24T23:07:29.609Z,99.90
2018-09-24T23:10:03.454Z,99.90
2018-09-24T23:12:37.265Z,99.90
2018-09-24T23:15:11.056Z,99.90
2018-09-24T23:17:44.877Z,99.90
2018-09-24T23:20:18.509Z,99.90
2018-09-24T23:22:52.474Z,99.90
2018-09-24T23:25:26.274Z,99.90
2018-09-24T23:27:59.962Z,99.90
2018-09-24T23:30:33.664Z,99.90
2018-09-24T23:33:07.461Z,99.90
2018-09-24T23:35:41.272Z,99.90
2018-09-24T23:38:14.985Z,99.90
2018-09-24T23:40:48.816Z,99.90
2018-09-24T23:43:22.709Z,99.90
2018-09-24T23:45:56.431Z,99.90
2018-09-24T23:48:30.213Z,99.90
2018-09-24T23:51:03.929Z,99.90
2018-09-24T23:53:37.594Z,99.90
2018-09-24T23:56:11.458Z,99.90
2018-09-24T23:58:45.274Z,99.90
